• Join FlightAware (Why Join?)
  • Login
  • US Flag 
01:17PM EDT


 

Airport Tracker/Info


-or-


 

Live Flight TrackerFlight Track Log ✈ CSJ405 ✈ 24-Apr-2012 ✈ KALB - KCDW

Flight Track Log - Related Links

Times and Time Zones

All times are in EDT time to prevent confusion due to time zone crossing. See the CSJ405 flight status page for this flight to view local times or setup timezone preferences in your user account.

Time Position Orientation Groundspeed Altitude Reporting Facility
EDT Latitude Longitude Course Direction KTS MPH feet Rate Location/Type
06:57AM 42.7444 -73.8111 196° South 93 107 900  Level Boston Center
06:58AM 42.7172 -73.8219 218° Southwest 103 119 2,200 1,080 Climbing Boston Center
06:59AM 42.6939 -73.8469 205° Southwest 111 128 3,300 1,080 Climbing Boston Center
07:00AM 42.6686 -73.8633 207° Southwest 108 124 4,400 1,020 Climbing Boston Center
07:01AM 42.6414 -73.8825 211° Southwest 111 128 5,400 1,020 Climbing Boston Center
07:02AM 42.6078 -73.9097 211° Southwest 120 138 6,500 1,020 Climbing Boston Center
07:03AM 42.5781 -73.9344 204° Southwest 119 137 7,600 780 Climbing Boston Center
07:04AM 42.5467 -73.9533 211° Southwest 130 150 8,100 240 Climbing Boston Center
07:05AM 42.5131 -73.9808 211° Southwest 145 167 8,100  Level Boston Center
07:06AM 42.4769 -74.0108 204° Southwest 149 171 8,100  Level Boston Center
07:07AM 42.4372 -74.0353 206° Southwest 153 176 8,100 -60 Level Boston Center
07:08AM 42.4014 -74.0594 211° Southwest 150 173 8,000 -60 Descending Boston Center
07:09AM 42.3675 -74.0867 209° Southwest 153 176 8,000  Level Boston Center
07:10AM 42.3317 -74.1139 208° Southwest 153 176 8,000  Level Boston Center
07:11AM 42.2981 -74.1383 208° Southwest 159 183 8,000 -60 Level Boston Center
07:12AM 42.2603 -74.1653 207° Southwest 154 177 7,900 -60 Descending Boston Center
07:13AM 42.2244 -74.1894 207° Southwest 154 177 7,900  Level Boston Center
07:14AM 42.1844 -74.2164 207° Southwest 159 183 7,900  Level Boston Center
07:15AM 42.1528 -74.2381 203° Southwest 159 183 7,900  Level Boston Center
07:16AM 42.1106 -74.2619 204° Southwest 152 175 7,900  Level Boston Center
07:17AM 42.0750 -74.2833 203° Southwest 152 175 7,900  Level Boston Center
07:18AM 42.0328 -74.3072 205° Southwest 152 175 8,000  Climbing Boston Center
07:19AM 41.9992 -74.3286 206° Southwest 152 175 8,000  Level Boston Center
07:20AM 41.9592 -74.3553 201° Southwest 152 175 8,000 -240 Level Boston Center
07:21AM 41.9233 -74.3739 204° Southwest 152 175 7,600 -540 Descending Boston Center
07:22AM 41.8792 -74.4003 205° Southwest 152 175 7,000 -360 Descending Boston Center
07:23AM 41.8494 -74.4189 203° Southwest 147 169 6,900  Descending Boston Center
07:24AM 41.8117 -74.4400 205° Southwest 142 163 7,000  Climbing Boston Center
07:25AM 41.7822 -74.4586 205° Southwest 137 158 7,000  Level Boston Center
07:26AM 41.7442 -74.4825 200° South 137 158 7,000  Level Boston Center
07:27AM 41.7128 -74.4981 205° Southwest 137 158 7,000  Level Boston Center
07:28AM 41.6747 -74.5219 206° Southwest 137 158 7,000 -120 Level Boston Center
07:29AM 41.6431 -74.5431 192° South 137 158 6,800 -420 Descending Boston Center
07:30AM 41.5992 -74.5556 188° South 143 165 6,200 -420 Descending Boston Center
07:31AM 41.5614 -74.5625 187° South 151 174 6,000 -120 Descending Boston Center
07:32AM 41.5197 -74.5694 189° South 151 174 6,000  Level Boston Center
07:33AM 41.4861 -74.5767 189° South 145 167 6,000  Level Boston Center
07:34AM 41.4422 -74.5864 197° South 145 167 6,000  Level Boston Center
07:36AM 41.3667 -74.6167 194° South 138 159 6,000  Level New York TRACON
07:37AM 41.3167 -74.6333 180° South 142 163 6,000  Level New York TRACON
07:38AM 41.2833 -74.6333 201° Southwest 138 159 6,000 -480 Level New York TRACON
07:39AM 41.2500 -74.6500 180° South 153 176 5,100 -960 Descending New York TRACON
07:40AM 41.2000 -74.6500 143° Southeast 165 190 4,100 -600 Descending New York TRACON
07:41AM 41.1667 -74.6167 114° Southeast 181 208 4,000 -240 Descending New York TRACON
07:42AM 41.1500 -74.5667 108° East 181 208 3,700 -2,100 Descending New York TRACON
07:43AM 41.1333 -74.5000 114° Southeast 185 213 100 -360 Descending New York TRACON
07:44AM 41.1167 -74.4500 108° East 179 206 3,000 1,500 Climbing New York TRACON
07:45AM 41.1000 -74.3833 114° Southeast 178 205 3,000  Level New York TRACON
07:46AM 41.0833 -74.3333 124° Southeast 172 198 3,000  Level New York TRACON
07:47AM 41.0500 -74.2667 114° Southeast 177 204 3,000 -240 Level New York TRACON
07:48AM 41.0333 -74.2167 143° Southeast 181 208 2,600 -540 Descending New York TRACON
07:49AM 41.0000 -74.1833 217° Southwest 147 169 2,000 -360 Descending New York TRACON
07:50AM 40.9833 -74.2000 217° Southwest 126 145 2,000 -180 Level New York TRACON
07:51AM 40.9500 -74.2333 201° Southwest 137 158 1,700 -480 Descending New York TRACON
07:52AM 40.9167 -74.2500 201° Southwest 129 148 1,200 -600 Descending New York TRACON